sensor_id;sensor_type;location;lat;lon;timestamp;temperature;humidity
11387;DHT22;5748;53.102;8.456;2023-07-22T00:00:45;16.80;65.30
11387;DHT22;5748;53.102;8.456;2023-07-22T00:03:12;16.70;65.30
11387;DHT22;5748;53.102;8.456;2023-07-22T00:05:40;16.70;65.30
11387;DHT22;5748;53.102;8.456;2023-07-22T00:08:08;16.70;65.30
11387;DHT22;5748;53.102;8.456;2023-07-22T00:10:35;16.70;65.30
11387;DHT22;5748;53.102;8.456;2023-07-22T00:13:02;16.70;65.30
11387;DHT22;5748;53.102;8.456;2023-07-22T00:15:29;16.70;65.40
11387;DHT22;5748;53.102;8.456;2023-07-22T00:17:55;16.60;65.40
11387;DHT22;5748;53.102;8.456;2023-07-22T00:20:22;16.60;65.40
11387;DHT22;5748;53.102;8.456;2023-07-22T00:22:51;16.60;65.40
11387;DHT22;5748;53.102;8.456;2023-07-22T00:25:19;16.70;65.70
11387;DHT22;5748;53.102;8.456;2023-07-22T00:27:48;16.60;65.50
11387;DHT22;5748;53.102;8.456;2023-07-22T00:30:14;16.70;65.70
11387;DHT22;5748;53.102;8.456;2023-07-22T00:32:41;16.60;65.60
11387;DHT22;5748;53.102;8.456;2023-07-22T00:35:08;16.60;65.60
11387;DHT22;5748;53.102;8.456;2023-07-22T00:37:36;16.50;65.60
11387;DHT22;5748;53.102;8.456;2023-07-22T00:40:03;16.50;65.70
11387;DHT22;5748;53.102;8.456;2023-07-22T00:42:38;16.50;65.80
11387;DHT22;5748;53.102;8.456;2023-07-22T00:45:06;16.50;65.80
11387;DHT22;5748;53.102;8.456;2023-07-22T00:47:34;16.40;65.80
11387;DHT22;5748;53.102;8.456;2023-07-22T00:50:02;16.40;65.80
11387;DHT22;5748;53.102;8.456;2023-07-22T00:52:31;16.40;65.80
11387;DHT22;5748;53.102;8.456;2023-07-22T00:54:58;16.40;65.80
11387;DHT22;5748;53.102;8.456;2023-07-22T00:57:25;16.40;66.00
11387;DHT22;5748;53.102;8.456;2023-07-22T00:59:54;16.40;66.00
11387;DHT22;5748;53.102;8.456;2023-07-22T01:02:22;16.40;66.10
11387;DHT22;5748;53.102;8.456;2023-07-22T01:04:49;16.40;66.10
11387;DHT22;5748;53.102;8.456;2023-07-22T01:07:18;16.40;66.20
11387;DHT22;5748;53.102;8.456;2023-07-22T01:09:45;16.40;65.60
11387;DHT22;5748;53.102;8.456;2023-07-22T01:12:13;16.40;66.20
11387;DHT22;5748;53.102;8.456;2023-07-22T01:14:41;16.30;66.10
11387;DHT22;5748;53.102;8.456;2023-07-22T01:17:10;16.30;66.10
11387;DHT22;5748;53.102;8.456;2023-07-22T01:19:38;16.30;66.20
11387;DHT22;5748;53.102;8.456;2023-07-22T01:22:06;16.30;65.60
11387;DHT22;5748;53.102;8.456;2023-07-22T01:24:35;16.30;66.10
11387;DHT22;5748;53.102;8.456;2023-07-22T01:27:02;16.30;66.10
11387;DHT22;5748;53.102;8.456;2023-07-22T01:29:33;16.30;66.10
11387;DHT22;5748;53.102;8.456;2023-07-22T01:32:00;16.20;66.10
11387;DHT22;5748;53.102;8.456;2023-07-22T01:34:27;16.20;65.90
11387;DHT22;5748;53.102;8.456;2023-07-22T01:36:55;16.20;66.00
11387;DHT22;5748;53.102;8.456;2023-07-22T01:39:22;16.20;66.20
11387;DHT22;5748;53.102;8.456;2023-07-22T01:41:50;16.10;66.20
11387;DHT22;5748;53.102;8.456;2023-07-22T01:44:17;16.10;66.20
11387;DHT22;5748;53.102;8.456;2023-07-22T01:46:44;16.20;66.30
11387;DHT22;5748;53.102;8.456;2023-07-22T01:49:12;16.10;66.20
11387;DHT22;5748;53.102;8.456;2023-07-22T01:51:39;16.10;66.30
11387;DHT22;5748;53.102;8.456;2023-07-22T01:54:07;16.10;66.30
11387;DHT22;5748;53.102;8.456;2023-07-22T01:56:34;16.00;66.40
11387;DHT22;5748;53.102;8.456;2023-07-22T01:59:03;16.00;66.40
11387;DHT22;5748;53.102;8.456;2023-07-22T02:01:30;16.00;66.30
11387;DHT22;5748;53.102;8.456;2023-07-22T02:03:57;16.00;66.40
11387;DHT22;5748;53.102;8.456;2023-07-22T02:06:24;16.00;66.40
11387;DHT22;5748;53.102;8.456;2023-07-22T02:08:51;16.00;66.40
11387;DHT22;5748;53.102;8.456;2023-07-22T02:11:18;15.90;66.30
11387;DHT22;5748;53.102;8.456;2023-07-22T02:13:45;15.90;66.40
11387;DHT22;5748;53.102;8.456;2023-07-22T02:16:13;15.90;66.40
11387;DHT22;5748;53.102;8.456;2023-07-22T02:18:40;15.90;66.50
11387;DHT22;5748;53.102;8.456;2023-07-22T02:21:07;15.90;66.40
11387;DHT22;5748;53.102;8.456;2023-07-22T02:23:34;15.90;66.50
11387;DHT22;5748;53.102;8.456;2023-07-22T02:26:01;15.90;66.40
11387;DHT22;5748;53.102;8.456;2023-07-22T02:28:28;15.90;66.50
11387;DHT22;5748;53.102;8.456;2023-07-22T02:30:55;15.80;66.50
11387;DHT22;5748;53.102;8.456;2023-07-22T02:33:23;15.80;66.50
11387;DHT22;5748;53.102;8.456;2023-07-22T02:35:50;15.80;66.10
11387;DHT22;5748;53.102;8.456;2023-07-22T02:38:17;15.80;66.60
11387;DHT22;5748;53.102;8.456;2023-07-22T02:40:44;15.80;66.70
11387;DHT22;5748;53.102;8.456;2023-07-22T02:43:11;15.70;66.60
11387;DHT22;5748;53.102;8.456;2023-07-22T02:45:38;15.70;66.70
11387;DHT22;5748;53.102;8.456;2023-07-22T02:48:05;15.80;66.70
11387;DHT22;5748;53.102;8.456;2023-07-22T02:50:34;15.60;66.60
11387;DHT22;5748;53.102;8.456;2023-07-22T02:53:02;15.70;66.90
11387;DHT22;5748;53.102;8.456;2023-07-22T02:55:29;15.70;66.80
11387;DHT22;5748;53.102;8.456;2023-07-22T02:57:56;15.60;66.80
11387;DHT22;5748;53.102;8.456;2023-07-22T03:00:23;15.60;66.90
11387;DHT22;5748;53.102;8.456;2023-07-22T03:02:50;15.60;66.80
11387;DHT22;5748;53.102;8.456;2023-07-22T03:05:18;15.60;66.50
11387;DHT22;5748;53.102;8.456;2023-07-22T03:07:46;15.60;67.10
11387;DHT22;5748;53.102;8.456;2023-07-22T03:10:13;15.60;67.00
11387;DHT22;5748;53.102;8.456;2023-07-22T03:12:40;15.50;67.00
11387;DHT22;5748;53.102;8.456;2023-07-22T03:15:08;15.50;67.10
11387;DHT22;5748;53.102;8.456;2023-07-22T03:17:35;15.50;67.10
11387;DHT22;5748;53.102;8.456;2023-07-22T03:20:03;15.50;67.00
11387;DHT22;5748;53.102;8.456;2023-07-22T03:22:36;15.50;67.10
11387;DHT22;5748;53.102;8.456;2023-07-22T03:25:04;15.50;67.10
11387;DHT22;5748;53.102;8.456;2023-07-22T03:27:34;15.50;67.20
11387;DHT22;5748;53.102;8.456;2023-07-22T03:30:02;15.50;67.20
11387;DHT22;5748;53.102;8.456;2023-07-22T03:32:29;15.50;67.30
11387;DHT22;5748;53.102;8.456;2023-07-22T03:34:56;15.40;67.20
11387;DHT22;5748;53.102;8.456;2023-07-22T03:37:23;15.40;67.30
11387;DHT22;5748;53.102;8.456;2023-07-22T03:39:50;15.40;67.30
11387;DHT22;5748;53.102;8.456;2023-07-22T03:42:18;15.40;67.30
11387;DHT22;5748;53.102;8.456;2023-07-22T03:44:45;15.50;67.50
11387;DHT22;5748;53.102;8.456;2023-07-22T03:47:12;15.40;67.40
11387;DHT22;5748;53.102;8.456;2023-07-22T03:49:39;15.40;67.50
11387;DHT22;5748;53.102;8.456;2023-07-22T03:52:07;15.40;67.40
11387;DHT22;5748;53.102;8.456;2023-07-22T03:54:34;15.40;67.60
11387;DHT22;5748;53.102;8.456;2023-07-22T03:57:01;15.40;67.60
11387;DHT22;5748;53.102;8.456;2023-07-22T03:59:29;15.40;67.50
11387;DHT22;5748;53.102;8.456;2023-07-22T04:01:56;15.40;67.70
11387;DHT22;5748;53.102;8.456;2023-07-22T04:04:23;15.40;67.70
11387;DHT22;5748;53.102;8.456;2023-07-22T04:06:50;15.40;67.70
11387;DHT22;5748;53.102;8.456;2023-07-22T04:09:16;15.40;67.70
11387;DHT22;5748;53.102;8.456;2023-07-22T04:11:43;15.40;68.50
11387;DHT22;5748;53.102;8.456;2023-07-22T04:14:10;15.40;67.80
11387;DHT22;5748;53.102;8.456;2023-07-22T04:16:39;15.40;67.30
11387;DHT22;5748;53.102;8.456;2023-07-22T04:19:06;15.40;67.90
11387;DHT22;5748;53.102;8.456;2023-07-22T04:21:32;15.40;67.80
11387;DHT22;5748;53.102;8.456;2023-07-22T04:23:59;15.50;67.90
11387;DHT22;5748;53.102;8.456;2023-07-22T04:26:26;15.50;67.90
11387;DHT22;5748;53.102;8.456;2023-07-22T04:28:53;15.40;67.90
11387;DHT22;5748;53.102;8.456;2023-07-22T04:31:20;15.40;68.00
11387;DHT22;5748;53.102;8.456;2023-07-22T04:33:48;15.50;68.10
11387;DHT22;5748;53.102;8.456;2023-07-22T04:36:15;15.50;68.20
11387;DHT22;5748;53.102;8.456;2023-07-22T04:38:42;15.50;68.20
11387;DHT22;5748;53.102;8.456;2023-07-22T04:41:09;15.50;68.30
11387;DHT22;5748;53.102;8.456;2023-07-22T04:43:36;15.50;68.40
11387;DHT22;5748;53.102;8.456;2023-07-22T04:46:05;15.60;68.30
11387;DHT22;5748;53.102;8.456;2023-07-22T04:48:32;15.60;68.50
11387;DHT22;5748;53.102;8.456;2023-07-22T04:51:01;15.60;68.60
11387;DHT22;5748;53.102;8.456;2023-07-22T04:53:27;15.60;68.90
11387;DHT22;5748;53.102;8.456;2023-07-22T04:55:54;15.70;68.80
11387;DHT22;5748;53.102;8.456;2023-07-22T04:58:21;15.80;69.00
11387;DHT22;5748;53.102;8.456;2023-07-22T05:00:49;15.80;69.10
11387;DHT22;5748;53.102;8.456;2023-07-22T05:03:17;15.80;69.10
11387;DHT22;5748;53.102;8.456;2023-07-22T05:05:44;15.90;69.40
11387;DHT22;5748;53.102;8.456;2023-07-22T05:08:13;16.00;68.90
11387;DHT22;5748;53.102;8.456;2023-07-22T05:10:40;16.00;69.50
11387;DHT22;5748;53.102;8.456;2023-07-22T05:13:07;16.10;69.60
11387;DHT22;5748;53.102;8.456;2023-07-22T05:15:34;16.20;69.70
11387;DHT22;5748;53.102;8.456;2023-07-22T05:18:01;16.30;69.70
11387;DHT22;5748;53.102;8.456;2023-07-22T05:20:27;16.30;69.70
11387;DHT22;5748;53.102;8.456;2023-07-22T05:22:55;16.40;69.80
11387;DHT22;5748;53.102;8.456;2023-07-22T05:25:23;16.50;69.90
11387;DHT22;5748;53.102;8.456;2023-07-22T05:27:50;16.60;69.90
11387;DHT22;5748;53.102;8.456;2023-07-22T05:30:17;16.70;69.90
11387;DHT22;5748;53.102;8.456;2023-07-22T05:32:44;16.70;69.90
11387;DHT22;5748;53.102;8.456;2023-07-22T05:35:11;16.80;70.00
11387;DHT22;5748;53.102;8.456;2023-07-22T05:37:38;16.90;69.90
11387;DHT22;5748;53.102;8.456;2023-07-22T05:40:06;17.00;70.00
11387;DHT22;5748;53.102;8.456;2023-07-22T05:42:35;17.00;70.00
11387;DHT22;5748;53.102;8.456;2023-07-22T05:45:03;17.10;70.10
11387;DHT22;5748;53.102;8.456;2023-07-22T05:47:30;17.20;70.20
11387;DHT22;5748;53.102;8.456;2023-07-22T05:49:57;17.20;70.20
11387;DHT22;5748;53.102;8.456;2023-07-22T05:52:24;17.30;70.20
11387;DHT22;5748;53.102;8.456;2023-07-22T05:54:51;17.40;70.20
11387;DHT22;5748;53.102;8.456;2023-07-22T05:57:17;17.40;70.20
11387;DHT22;5748;53.102;8.456;2023-07-22T05:59:46;17.50;70.30
11387;DHT22;5748;53.102;8.456;2023-07-22T06:02:13;17.60;70.40
11387;DHT22;5748;53.102;8.456;2023-07-22T06:04:40;17.80;70.70
11387;DHT22;5748;53.102;8.456;2023-07-22T06:07:07;17.80;70.70
11387;DHT22;5748;53.102;8.456;2023-07-22T06:09:34;18.00;71.00
11387;DHT22;5748;53.102;8.456;2023-07-22T06:12:01;18.10;71.00
11387;DHT22;5748;53.102;8.456;2023-07-22T06:14:28;18.20;71.10
11387;DHT22;5748;53.102;8.456;2023-07-22T06:16:57;18.40;71.10
11387;DHT22;5748;53.102;8.456;2023-07-22T06:19:24;18.50;71.00
11387;DHT22;5748;53.102;8.456;2023-07-22T06:21:51;18.60;71.10
11387;DHT22;5748;53.102;8.456;2023-07-22T06:24:18;18.80;71.10
11387;DHT22;5748;53.102;8.456;2023-07-22T06:26:44;18.90;70.00
11387;DHT22;5748;53.102;8.456;2023-07-22T06:29:11;18.90;70.80
11387;DHT22;5748;53.102;8.456;2023-07-22T06:31:38;19.00;70.70
11387;DHT22;5748;53.102;8.456;2023-07-22T06:34:06;19.10;70.60
11387;DHT22;5748;53.102;8.456;2023-07-22T06:36:33;19.20;70.70
11387;DHT22;5748;53.102;8.456;2023-07-22T06:39:00;19.30;70.60
11387;DHT22;5748;53.102;8.456;2023-07-22T06:41:27;19.40;70.50
11387;DHT22;5748;53.102;8.456;2023-07-22T06:43:54;19.40;70.50
11387;DHT22;5748;53.102;8.456;2023-07-22T06:46:21;20.20;71.40
11387;DHT22;5748;53.102;8.456;2023-07-22T06:48:48;19.60;70.80
11387;DHT22;5748;53.102;8.456;2023-07-22T06:51:16;19.70;70.80
11387;DHT22;5748;53.102;8.456;2023-07-22T06:53:43;19.80;70.60
11387;DHT22;5748;53.102;8.456;2023-07-22T06:56:10;19.80;70.50
11387;DHT22;5748;53.102;8.456;2023-07-22T06:58:36;19.90;70.50
11387;DHT22;5748;53.102;8.456;2023-07-22T07:01:03;20.00;70.60
11387;DHT22;5748;53.102;8.456;2023-07-22T07:03:30;20.00;70.40
11387;DHT22;5748;53.102;8.456;2023-07-22T07:05:57;20.10;69.60
11387;DHT22;5748;53.102;8.456;2023-07-22T07:08:26;20.10;70.30
11387;DHT22;5748;53.102;8.456;2023-07-22T07:10:53;20.20;70.40
11387;DHT22;5748;53.102;8.456;2023-07-22T07:13:20;20.20;70.60
11387;DHT22;5748;53.102;8.456;2023-07-22T07:15:47;20.30;70.70
11387;DHT22;5748;53.102;8.456;2023-07-22T07:18:15;20.40;71.00
11387;DHT22;5748;53.102;8.456;2023-07-22T07:20:43;20.50;71.90
11387;DHT22;5748;53.102;8.456;2023-07-22T07:23:10;21.10;71.70
11387;DHT22;5748;53.102;8.456;2023-07-22T07:25:38;20.70;71.10
11387;DHT22;5748;53.102;8.456;2023-07-22T07:28:05;20.70;70.90
11387;DHT22;5748;53.102;8.456;2023-07-22T07:30:32;20.90;71.00
11387;DHT22;5748;53.102;8.456;2023-07-22T07:32:59;20.90;70.70
11387;DHT22;5748;53.102;8.456;2023-07-22T07:35:26;21.10;70.90
11387;DHT22;5748;53.102;8.456;2023-07-22T07:37:53;21.10;70.80
11387;DHT22;5748;53.102;8.456;2023-07-22T07:40:19;21.10;70.60
11387;DHT22;5748;53.102;8.456;2023-07-22T07:42:48;21.20;71.00
11387;DHT22;5748;53.102;8.456;2023-07-22T07:45:15;21.30;71.50
11387;DHT22;5748;53.102;8.456;2023-07-22T07:47:42;21.40;72.20
11387;DHT22;5748;53.102;8.456;2023-07-22T07:50:09;21.60;72.70
11387;DHT22;5748;53.102;8.456;2023-07-22T07:52:36;21.80;73.50
11387;DHT22;5748;53.102;8.456;2023-07-22T07:55:05;22.00;73.80
11387;DHT22;5748;53.102;8.456;2023-07-22T07:57:32;22.30;74.10
11387;DHT22;5748;53.102;8.456;2023-07-22T08:00:01;22.60;74.30
11387;DHT22;5748;53.102;8.456;2023-07-22T08:02:28;22.90;73.90
11387;DHT22;5748;53.102;8.456;2023-07-22T08:04:55;23.20;73.70
11387;DHT22;5748;53.102;8.456;2023-07-22T08:07:22;23.40;73.00
11387;DHT22;5748;53.102;8.456;2023-07-22T08:09:49;23.60;72.40
11387;DHT22;5748;53.102;8.456;2023-07-22T08:12:16;23.70;71.60
11387;DHT22;5748;53.102;8.456;2023-07-22T08:14:44;23.80;70.90
11387;DHT22;5748;53.102;8.456;2023-07-22T08:17:12;24.00;70.50
11387;DHT22;5748;53.102;8.456;2023-07-22T08:19:39;24.00;70.10
11387;DHT22;5748;53.102;8.456;2023-07-22T08:22:06;22.70;68.50
11387;DHT22;5748;53.102;8.456;2023-07-22T08:24:32;24.00;70.00
11387;DHT22;5748;53.102;8.456;2023-07-22T08:26:59;24.10;70.10
11387;DHT22;5748;53.102;8.456;2023-07-22T08:29:26;24.30;69.60
11387;DHT22;5748;53.102;8.456;2023-07-22T08:31:53;24.10;69.30
11387;DHT22;5748;53.102;8.456;2023-07-22T08:34:21;24.10;69.00
11387;DHT22;5748;53.102;8.456;2023-07-22T08:36:48;24.10;68.60
11387;DHT22;5748;53.102;8.456;2023-07-22T08:39:15;24.10;68.50
11387;DHT22;5748;53.102;8.456;2023-07-22T08:41:48;24.00;68.30
11387;DHT22;5748;53.102;8.456;2023-07-22T08:44:19;24.00;68.00
11387;DHT22;5748;53.102;8.456;2023-07-22T08:46:49;23.90;67.90
11387;DHT22;5748;53.102;8.456;2023-07-22T08:49:16;24.00;67.90
11387;DHT22;5748;53.102;8.456;2023-07-22T08:51:45;23.90;68.20
11387;DHT22;5748;53.102;8.456;2023-07-22T08:54:13;23.90;68.60
11387;DHT22;5748;53.102;8.456;2023-07-22T08:56:41;24.00;68.80
11387;DHT22;5748;53.102;8.456;2023-07-22T08:59:09;24.00;69.00
11387;DHT22;5748;53.102;8.456;2023-07-22T09:01:37;24.10;68.90
11387;DHT22;5748;53.102;8.456;2023-07-22T09:04:05;24.20;68.90
11387;DHT22;5748;53.102;8.456;2023-07-22T09:06:32;24.30;68.30
11387;DHT22;5748;53.102;8.456;2023-07-22T09:09:02;24.40;68.00
11387;DHT22;5748;53.102;8.456;2023-07-22T09:11:34;24.40;67.80
11387;DHT22;5748;53.102;8.456;2023-07-22T09:14:02;24.40;68.00
11387;DHT22;5748;53.102;8.456;2023-07-22T09:16:30;24.50;68.00
11387;DHT22;5748;53.102;8.456;2023-07-22T09:18:58;24.50;68.50
11387;DHT22;5748;53.102;8.456;2023-07-22T09:21:25;24.60;68.80
11387;DHT22;5748;53.102;8.456;2023-07-22T09:23:53;24.70;68.90
11387;DHT22;5748;53.102;8.456;2023-07-22T09:26:21;24.80;69.20
11387;DHT22;5748;53.102;8.456;2023-07-22T09:28:49;25.00;69.10
11387;DHT22;5748;53.102;8.456;2023-07-22T09:31:17;25.10;68.90
11387;DHT22;5748;53.102;8.456;2023-07-22T09:33:44;25.30;68.80
11387;DHT22;5748;53.102;8.456;2023-07-22T09:36:12;25.60;69.30
11387;DHT22;5748;53.102;8.456;2023-07-22T09:38:39;25.50;68.00
11387;DHT22;5748;53.102;8.456;2023-07-22T09:41:06;25.50;67.10
11387;DHT22;5748;53.102;8.456;2023-07-22T09:43:37;25.50;66.40
11387;DHT22;5748;53.102;8.456;2023-07-22T09:46:09;25.40;65.10
11387;DHT22;5748;53.102;8.456;2023-07-22T09:48:40;25.40;65.50
11387;DHT22;5748;53.102;8.456;2023-07-22T09:51:12;25.30;65.60
11387;DHT22;5748;53.102;8.456;2023-07-22T09:53:45;25.20;65.70
11387;DHT22;5748;53.102;8.456;2023-07-22T09:56:12;25.30;66.90
11387;DHT22;5748;53.102;8.456;2023-07-22T09:58:43;25.30;67.80
11387;DHT22;5748;53.102;8.456;2023-07-22T10:01:12;25.50;68.20
11387;DHT22;5748;53.102;8.456;2023-07-22T10:03:43;25.60;68.40
11387;DHT22;5748;53.102;8.456;2023-07-22T10:06:11;25.80;67.80
11387;DHT22;5748;53.102;8.456;2023-07-22T10:08:40;25.90;66.90
11387;DHT22;5748;53.102;8.456;2023-07-22T10:11:12;26.10;66.50
11387;DHT22;5748;53.102;8.456;2023-07-22T10:13:41;26.10;65.90
11387;DHT22;5748;53.102;8.456;2023-07-22T10:16:09;26.10;64.40
11387;DHT22;5748;53.102;8.456;2023-07-22T10:18:36;26.00;64.90
11387;DHT22;5748;53.102;8.456;2023-07-22T10:21:04;26.00;64.30
11387;DHT22;5748;53.102;8.456;2023-07-22T10:23:31;25.80;64.30
11387;DHT22;5748;53.102;8.456;2023-07-22T10:25:59;25.70;63.40
11387;DHT22;5748;53.102;8.456;2023-07-22T10:28:26;25.60;63.70
11387;DHT22;5748;53.102;8.456;2023-07-22T10:30:54;25.60;63.80
11387;DHT22;5748;53.102;8.456;2023-07-22T10:33:22;25.40;63.50
11387;DHT22;5748;53.102;8.456;2023-07-22T10:36:03;25.10;62.70
11387;DHT22;5748;53.102;8.456;2023-07-22T10:38:32;25.10;61.90
11387;DHT22;5748;53.102;8.456;2023-07-22T10:40:59;25.00;63.30
11387;DHT22;5748;53.102;8.456;2023-07-22T10:43:27;24.90;63.10
11387;DHT22;5748;53.102;8.456;2023-07-22T10:48:35;24.80;64.10
11387;DHT22;5748;53.102;8.456;2023-07-22T10:51:06;24.80;64.10
11387;DHT22;5748;53.102;8.456;2023-07-22T10:53:40;24.80;64.50
11387;DHT22;5748;53.102;8.456;2023-07-22T10:56:14;25.00;64.30
11387;DHT22;5748;53.102;8.456;2023-07-22T10:58:59;24.90;63.90
11387;DHT22;5748;53.102;8.456;2023-07-22T11:01:34;24.90;63.30
11387;DHT22;5748;53.102;8.456;2023-07-22T11:04:13;24.90;63.50
11387;DHT22;5748;53.102;8.456;2023-07-22T11:06:54;24.90;62.60
11387;DHT22;5748;53.102;8.456;2023-07-22T11:09:40;24.80;62.00
11387;DHT22;5748;53.102;8.456;2023-07-22T11:12:13;24.80;61.30
11387;DHT22;5748;53.102;8.456;2023-07-22T11:14:46;24.80;63.00
11387;DHT22;5748;53.102;8.456;2023-07-22T11:17:16;24.80;63.40
11387;DHT22;5748;53.102;8.456;2023-07-22T11:19:45;24.80;63.80
11387;DHT22;5748;53.102;8.456;2023-07-22T11:22:12;24.90;64.40
11387;DHT22;5748;53.102;8.456;2023-07-22T11:24:39;25.00;64.10
11387;DHT22;5748;53.102;8.456;2023-07-22T11:27:07;25.10;64.00
11387;DHT22;5748;53.102;8.456;2023-07-22T11:29:34;25.00;63.90
11387;DHT22;5748;53.102;8.456;2023-07-22T11:32:02;25.10;63.40
11387;DHT22;5748;53.102;8.456;2023-07-22T11:34:32;25.10;63.10
11387;DHT22;5748;53.102;8.456;2023-07-22T11:36:59;25.10;63.10
11387;DHT22;5748;53.102;8.456;2023-07-22T11:39:27;25.00;62.90
11387;DHT22;5748;53.102;8.456;2023-07-22T11:41:58;25.00;62.80
11387;DHT22;5748;53.102;8.456;2023-07-22T11:44:27;24.90;62.70
11387;DHT22;5748;53.102;8.456;2023-07-22T11:46:56;24.80;62.30
11387;DHT22;5748;53.102;8.456;2023-07-22T11:49:25;24.70;62.10
11387;DHT22;5748;53.102;8.456;2023-07-22T11:51:59;24.70;62.20
11387;DHT22;5748;53.102;8.456;2023-07-22T11:54:27;24.60;61.70
11387;DHT22;5748;53.102;8.456;2023-07-22T11:56:55;24.50;62.10
11387;DHT22;5748;53.102;8.456;2023-07-22T11:59:36;24.40;62.00
11387;DHT22;5748;53.102;8.456;2023-07-22T12:02:04;24.30;61.60
11387;DHT22;5748;53.102;8.456;2023-07-22T12:04:32;24.00;62.00
11387;DHT22;5748;53.102;8.456;2023-07-22T12:07:01;23.80;62.10
11387;DHT22;5748;53.102;8.456;2023-07-22T12:09:29;23.70;62.40
11387;DHT22;5748;53.102;8.456;2023-07-22T12:11:57;23.50;62.30
11387;DHT22;5748;53.102;8.456;2023-07-22T12:14:33;23.30;62.30
11387;DHT22;5748;53.102;8.456;2023-07-22T12:17:01;23.10;62.50
11387;DHT22;5748;53.102;8.456;2023-07-22T12:19:28;22.90;62.10
11387;DHT22;5748;53.102;8.456;2023-07-22T12:21:55;22.70;62.90
11387;DHT22;5748;53.102;8.456;2023-07-22T12:24:24;22.50;63.20
11387;DHT22;5748;53.102;8.456;2023-07-22T12:26:51;22.40;63.40
11387;DHT22;5748;53.102;8.456;2023-07-22T12:29:17;22.30;63.60
11387;DHT22;5748;53.102;8.456;2023-07-22T12:31:44;22.10;63.10
11387;DHT22;5748;53.102;8.456;2023-07-22T12:34:11;22.10;64.20
11387;DHT22;5748;53.102;8.456;2023-07-22T12:36:39;22.00;64.40
11387;DHT22;5748;53.102;8.456;2023-07-22T12:39:06;21.90;64.60
11387;DHT22;5748;53.102;8.456;2023-07-22T12:41:34;21.90;64.60
11387;DHT22;5748;53.102;8.456;2023-07-22T12:44:01;21.90;64.80
11387;DHT22;5748;53.102;8.456;2023-07-22T12:46:28;21.80;65.10
11387;DHT22;5748;53.102;8.456;2023-07-22T12:48:55;21.70;65.10
11387;DHT22;5748;53.102;8.456;2023-07-22T12:51:22;21.70;64.70
11387;DHT22;5748;53.102;8.456;2023-07-22T12:53:49;22.60;66.10
11387;DHT22;5748;53.102;8.456;2023-07-22T12:56:16;21.60;65.00
11387;DHT22;5748;53.102;8.456;2023-07-22T12:58:44;21.60;65.40
11387;DHT22;5748;53.102;8.456;2023-07-22T13:01:11;21.60;65.70
11387;DHT22;5748;53.102;8.456;2023-07-22T13:03:38;21.60;65.90
11387;DHT22;5748;53.102;8.456;2023-07-22T13:06:05;21.60;65.90
11387;DHT22;5748;53.102;8.456;2023-07-22T13:08:32;21.60;66.50
11387;DHT22;5748;53.102;8.456;2023-07-22T13:10:59;21.70;66.90
11387;DHT22;5748;53.102;8.456;2023-07-22T13:13:26;21.80;67.20
11387;DHT22;5748;53.102;8.456;2023-07-22T13:15:54;21.90;66.70
11387;DHT22;5748;53.102;8.456;2023-07-22T13:18:21;21.90;67.20
11387;DHT22;5748;53.102;8.456;2023-07-22T13:20:48;22.00;67.30
11387;DHT22;5748;53.102;8.456;2023-07-22T13:23:15;22.00;67.40
11387;DHT22;5748;53.102;8.456;2023-07-22T13:25:42;22.10;67.60
11387;DHT22;5748;53.102;8.456;2023-07-22T13:28:08;22.20;67.70
11387;DHT22;5748;53.102;8.456;2023-07-22T13:30:35;22.20;67.70
11387;DHT22;5748;53.102;8.456;2023-07-22T13:33:03;22.30;67.80
11387;DHT22;5748;53.102;8.456;2023-07-22T13:35:30;22.30;67.60
11387;DHT22;5748;53.102;8.456;2023-07-22T13:37:57;22.40;67.40
11387;DHT22;5748;53.102;8.456;2023-07-22T13:40:24;22.70;67.40
11387;DHT22;5748;53.102;8.456;2023-07-22T13:42:51;22.50;67.10
11387;DHT22;5748;53.102;8.456;2023-07-22T13:45:18;22.50;66.90
11387;DHT22;5748;53.102;8.456;2023-07-22T13:47:45;22.50;66.90
11387;DHT22;5748;53.102;8.456;2023-07-22T13:50:13;22.50;67.00
11387;DHT22;5748;53.102;8.456;2023-07-22T13:52:40;22.50;67.00
11387;DHT22;5748;53.102;8.456;2023-07-22T13:55:09;22.50;67.00
11387;DHT22;5748;53.102;8.456;2023-07-22T13:57:36;22.50;66.90
11387;DHT22;5748;53.102;8.456;2023-07-22T14:00:03;22.50;66.60
11387;DHT22;5748;53.102;8.456;2023-07-22T14:02:33;22.40;66.50
11387;DHT22;5748;53.102;8.456;2023-07-22T14:05:00;22.30;66.50
11387;DHT22;5748;53.102;8.456;2023-07-22T14:07:29;22.20;66.20
11387;DHT22;5748;53.102;8.456;2023-07-22T14:09:56;22.20;66.40
11387;DHT22;5748;53.102;8.456;2023-07-22T14:12:23;22.20;66.30
11387;DHT22;5748;53.102;8.456;2023-07-22T14:14:50;22.10;66.30
11387;DHT22;5748;53.102;8.456;2023-07-22T14:17:17;22.00;66.20
11387;DHT22;5748;53.102;8.456;2023-07-22T14:19:44;21.90;66.40
11387;DHT22;5748;53.102;8.456;2023-07-22T14:22:10;21.80;66.50
11387;DHT22;5748;53.102;8.456;2023-07-22T14:24:39;21.80;66.80
11387;DHT22;5748;53.102;8.456;2023-07-22T14:27:06;21.80;67.00
11387;DHT22;5748;53.102;8.456;2023-07-22T14:29:33;21.60;67.00
11387;DHT22;5748;53.102;8.456;2023-07-22T14:32:00;21.70;67.90
11387;DHT22;5748;53.102;8.456;2023-07-22T14:34:27;21.60;67.20
11387;DHT22;5748;53.102;8.456;2023-07-22T14:36:54;21.60;66.70
11387;DHT22;5748;53.102;8.456;2023-07-22T14:39:21;21.80;67.40
11387;DHT22;5748;53.102;8.456;2023-07-22T14:41:49;21.60;67.30
11387;DHT22;5748;53.102;8.456;2023-07-22T14:44:16;21.60;67.50
11387;DHT22;5748;53.102;8.456;2023-07-22T14:46:44;21.60;67.00
11387;DHT22;5748;53.102;8.456;2023-07-22T14:49:11;22.00;67.80
11387;DHT22;5748;53.102;8.456;2023-07-22T14:51:38;21.60;67.60
11387;DHT22;5748;53.102;8.456;2023-07-22T14:54:05;21.60;67.70
11387;DHT22;5748;53.102;8.456;2023-07-22T14:56:32;21.60;67.20
11387;DHT22;5748;53.102;8.456;2023-07-22T14:59:00;21.60;67.70
11387;DHT22;5748;53.102;8.456;2023-07-22T15:01:27;21.60;67.80
11387;DHT22;5748;53.102;8.456;2023-07-22T15:04:03;21.50;67.50
11387;DHT22;5748;53.102;8.456;2023-07-22T15:06:30;21.50;67.40
11387;DHT22;5748;53.102;8.456;2023-07-22T15:08:58;21.50;67.40
11387;DHT22;5748;53.102;8.456;2023-07-22T15:11:25;21.40;67.30
11387;DHT22;5748;53.102;8.456;2023-07-22T15:13:51;21.40;67.50
11387;DHT22;5748;53.102;8.456;2023-07-22T15:16:20;21.40;67.10
11387;DHT22;5748;53.102;8.456;2023-07-22T15:18:46;21.30;68.20
11387;DHT22;5748;53.102;8.456;2023-07-22T15:21:13;21.30;67.30
11387;DHT22;5748;53.102;8.456;2023-07-22T15:23:40;21.30;67.20
11387;DHT22;5748;53.102;8.456;2023-07-22T15:26:07;21.10;66.60
11387;DHT22;5748;53.102;8.456;2023-07-22T15:28:34;21.10;67.10
11387;DHT22;5748;53.102;8.456;2023-07-22T15:31:01;21.00;67.00
11387;DHT22;5748;53.102;8.456;2023-07-22T15:33:29;21.00;67.20
11387;DHT22;5748;53.102;8.456;2023-07-22T15:35:56;20.80;66.50
11387;DHT22;5748;53.102;8.456;2023-07-22T15:38:23;20.80;67.20
11387;DHT22;5748;53.102;8.456;2023-07-22T15:40:50;20.70;67.20
11387;DHT22;5748;53.102;8.456;2023-07-22T15:43:17;20.70;67.30
11387;DHT22;5748;53.102;8.456;2023-07-22T15:45:44;20.60;67.30
11387;DHT22;5748;53.102;8.456;2023-07-22T15:48:11;20.50;66.80
11387;DHT22;5748;53.102;8.456;2023-07-22T15:50:39;20.50;67.50